createdAt,value
2022-08-17T00:04:12.808Z,46.20
2022-08-17T00:09:48.078Z,46.21
2022-08-17T00:15:20.956Z,46.58
2022-08-17T00:20:52.748Z,46.32
2022-08-17T00:26:43.162Z,46.34
2022-08-17T00:33:11.932Z,46.44
2022-08-17T00:38:10.223Z,46.79
2022-08-17T00:43:50.877Z,46.57
2022-08-17T00:49:25.423Z,46.65
2022-08-17T00:54:57.360Z,46.80
2022-08-17T01:00:36.933Z,46.79
2022-08-17T01:06:09.657Z,46.52
2022-08-17T01:11:41.550Z,46.70
2022-08-17T01:17:13.111Z,46.79
2022-08-17T01:22:44.596Z,46.92
2022-08-17T01:28:33.393Z,46.67
2022-08-17T01:34:10.108Z,46.93
2022-08-17T01:39:50.579Z,47.29
2022-08-17T01:45:26.012Z,46.98
2022-08-17T01:50:57.517Z,47.10
2022-08-17T01:56:31.454Z,47.00
2022-08-17T02:02:02.872Z,47.04
2022-08-17T02:08:00.015Z,47.13
2022-08-17T02:13:29.920Z,47.07
2022-08-17T02:19:01.833Z,47.14
2022-08-17T02:25:01.074Z,47.22
2022-08-17T02:30:50.218Z,47.37
2022-08-17T02:36:22.968Z,47.33
2022-08-17T02:42:03.797Z,47.39
2022-08-17T02:47:36.077Z,47.64
2022-08-17T02:53:07.724Z,47.88
2022-08-17T02:58:39.211Z,47.86
2022-08-17T03:04:10.465Z,48.08
2022-08-17T03:09:42.365Z,48.19
2022-08-17T03:15:28.325Z,48.34
2022-08-17T03:21:01.666Z,48.52
2022-08-17T03:26:33.128Z,48.52
2022-08-17T03:32:12.802Z,48.46
2022-08-17T03:37:44.079Z,48.52
2022-08-17T03:43:15.859Z,48.83
2022-08-17T03:49:06.319Z,48.77
2022-08-17T03:54:55.936Z,48.70
2022-08-17T04:00:28.043Z,49.03
2022-08-17T04:06:02.584Z,49.12
2022-08-17T04:11:35.023Z,48.99
2022-08-17T04:17:06.702Z,49.17
2022-08-17T04:22:38.361Z,49.17
2022-08-17T04:28:16.082Z,49.24
2022-08-17T04:33:47.761Z,49.48
2022-08-17T04:39:19.038Z,49.44
2022-08-17T04:44:50.034Z,49.65
2022-08-17T04:50:21.767Z,49.31
2022-08-17T04:55:54.928Z,50.24
2022-08-17T05:01:28.403Z,53.22
2022-08-17T05:07:01.105Z,54.64
2022-08-17T05:12:32.338Z,55.48
2022-08-17T05:18:04.699Z,56.20
2022-08-17T05:23:42.506Z,56.63
2022-08-17T05:29:15.460Z,57.07
2022-08-17T05:34:46.679Z,57.27
2022-08-17T05:40:20.115Z,56.66
2022-08-17T05:46:23.426Z,57.05
2022-08-17T05:52:04.026Z,55.88
2022-08-17T05:57:35.371Z,57.99
2022-08-17T06:03:44.780Z,56.96
2022-08-17T06:09:33.944Z,57.68
2022-08-17T06:15:12.973Z,58.14
2022-08-17T06:20:54.409Z,56.64
2022-08-17T06:26:38.606Z,57.46
2022-08-17T06:32:15.042Z,56.19
2022-08-17T06:37:57.020Z,55.64
2022-08-17T06:43:47.820Z,56.07
2022-08-17T06:49:30.741Z,53.74
2022-08-17T06:55:05.361Z,52.17
2022-08-17T07:00:42.299Z,50.77
2022-08-17T07:06:19.641Z,50.22
2022-08-17T07:11:52.521Z,49.61
2022-08-17T07:17:36.935Z,49.41
2022-08-17T07:23:34.680Z,49.17
2022-08-17T07:29:06.735Z,48.75
2022-08-17T07:35:11.720Z,48.84
2022-08-17T07:40:58.196Z,48.62
2022-08-17T07:46:52.112Z,48.76
2022-08-17T07:52:50.947Z,48.37
2022-08-17T07:58:24.455Z,48.38
2022-08-17T08:03:55.547Z,48.56
2022-08-17T08:09:41.143Z,48.71
2022-08-17T08:15:21.017Z,48.32
2022-08-17T08:21:08.919Z,48.74
2022-08-17T08:27:33.873Z,48.54
2022-08-17T08:33:29.369Z,48.31
2022-08-17T08:39:07.295Z,48.37
2022-08-17T08:45:01.177Z,47.86
2022-08-17T08:50:41.169Z,48.11
2022-08-17T08:56:21.087Z,46.24
2022-08-17T09:02:08.514Z,47.32
2022-08-17T09:07:51.654Z,47.00
2022-08-17T09:13:44.393Z,47.52
2022-08-17T09:19:21.742Z,46.29
2022-08-17T09:25:07.784Z,45.56
2022-08-17T09:31:03.724Z,44.79
2022-08-17T09:36:41.768Z,44.10
2022-08-17T09:42:32.460Z,44.43
2022-08-17T09:48:18.554Z,44.60
2022-08-17T09:53:50.580Z,42.13
2022-08-17T09:59:50.616Z,41.48
2022-08-17T10:06:06.544Z,41.11
2022-08-17T10:12:02.791Z,40.00
2022-08-17T10:17:38.120Z,41.26
2022-08-17T10:24:02.970Z,41.55
2022-08-17T10:29:49.051Z,40.47
2022-08-17T10:35:45.718Z,41.10
2022-08-17T10:41:20.113Z,41.86
2022-08-17T10:47:11.593Z,42.00
2022-08-17T10:52:43.009Z,41.56
2022-08-17T10:58:22.092Z,41.94
2022-08-17T11:03:56.874Z,40.78
2022-08-17T11:09:51.231Z,40.96
2022-08-17T11:15:51.688Z,40.07
2022-08-17T11:21:26.152Z,38.85
2022-08-17T11:26:59.893Z,40.27
2022-08-17T11:32:52.961Z,40.99
2022-08-17T11:38:41.625Z,39.99
2022-08-17T11:44:38.191Z,40.98
2022-08-17T11:50:54.470Z,41.54
2022-08-17T11:56:41.296Z,40.64
2022-08-17T12:02:35.114Z,38.93
2022-08-17T12:08:18.698Z,39.05
2022-08-17T12:14:00.319Z,39.54
2022-08-17T12:19:37.360Z,40.35
2022-08-17T12:25:21.986Z,39.64
2022-08-17T12:30:54.365Z,40.06
2022-08-17T12:36:28.516Z,40.17
2022-08-17T12:42:02.568Z,38.54
2022-08-17T12:47:37.906Z,38.81
2022-08-17T12:53:15.950Z,37.98
2022-08-17T12:58:53.877Z,37.76
2022-08-17T13:04:26.534Z,38.83
2022-08-17T13:10:01.880Z,39.39
2022-08-17T13:15:44.956Z,39.87
2022-08-17T13:21:19.407Z,40.21
2022-08-17T13:27:08.744Z,40.33
2022-08-17T13:32:45.068Z,40.43
2022-08-17T13:38:40.635Z,40.64
2022-08-17T13:44:36.840Z,40.75
2022-08-17T13:50:20.570Z,40.89
2022-08-17T13:56:37.636Z,41.00
2022-08-17T14:02:01.324Z,40.99
2022-08-17T14:07:33.997Z,41.19
2022-08-17T14:13:06.837Z,41.13
2022-08-17T14:18:56.103Z,41.37
2022-08-17T14:24:35.493Z,41.62
2022-08-17T14:30:08.118Z,41.26
2022-08-17T14:35:44.700Z,41.75
2022-08-17T14:41:22.000Z,41.67
2022-08-17T14:46:53.781Z,41.82
2022-08-17T14:52:25.337Z,41.89
2022-08-17T14:57:56.213Z,42.12
2022-08-17T15:03:27.224Z,41.98
2022-08-17T15:08:58.516Z,42.05
2022-08-17T15:14:29.865Z,42.11
2022-08-17T15:20:01.323Z,42.16
2022-08-17T15:25:33.540Z,42.21
2022-08-17T15:31:06.335Z,42.13
2022-08-17T15:36:38.068Z,42.20
2022-08-17T15:42:12.734Z,42.25
2022-08-17T15:47:44.290Z,42.13
2022-08-17T15:53:15.646Z,42.25
2022-08-17T15:58:48.285Z,42.45
2022-08-17T16:04:26.775Z,42.34
2022-08-17T16:10:01.955Z,42.52
2022-08-17T16:15:33.209Z,42.43
2022-08-17T16:21:27.283Z,42.41
2022-08-17T16:26:58.577Z,42.52
2022-08-17T16:32:31.494Z,42.76
2022-08-17T16:38:07.032Z,42.69
2022-08-17T16:43:38.844Z,42.76
2022-08-17T16:49:10.791Z,42.87
2022-08-17T16:54:55.714Z,42.78
2022-08-17T17:00:26.991Z,42.99
2022-08-17T17:06:18.854Z,43.05
2022-08-17T17:11:53.979Z,43.19
2022-08-17T17:17:29.739Z,43.31
2022-08-17T17:23:00.993Z,43.39
2022-08-17T17:28:51.080Z,43.48
2022-08-17T17:34:22.728Z,43.51
2022-08-17T17:39:56.761Z,43.58
2022-08-17T17:45:38.011Z,43.41
2022-08-17T17:52:02.818Z,43.58
2022-08-17T17:57:37.600Z,43.67
2022-08-17T18:03:28.303Z,43.49
2022-08-17T18:09:20.873Z,43.53
2022-08-17T18:15:10.871Z,43.58
2022-08-17T18:20:55.885Z,43.49
2022-08-17T18:26:33.178Z,43.64
2022-08-17T18:32:32.068Z,43.68
2022-08-17T18:38:23.388Z,43.78
2022-08-17T18:44:01.529Z,43.77
2022-08-17T18:49:33.104Z,43.84
2022-08-17T18:55:17.568Z,43.94
2022-08-17T19:00:49.444Z,44.09
2022-08-17T19:06:29.316Z,44.12
2022-08-17T19:12:02.459Z,44.10
2022-08-17T19:17:48.675Z,44.33
2022-08-17T19:23:40.740Z,44.36
2022-08-17T19:29:34.389Z,44.28
2022-08-17T19:35:10.453Z,44.53
2022-08-17T19:40:59.295Z,44.69
2022-08-17T19:46:59.541Z,44.65
2022-08-17T19:53:00.990Z,44.80
2022-08-17T19:58:57.970Z,44.91
2022-08-17T20:04:31.978Z,44.92
2022-08-17T20:10:10.444Z,44.95
2022-08-17T20:15:43.400Z,45.21
2022-08-17T20:21:22.423Z,45.03
2022-08-17T20:26:59.053Z,45.40
2022-08-17T20:32:35.931Z,45.46
2022-08-17T20:38:13.456Z,45.40
2022-08-17T20:43:55.364Z,45.60
2022-08-17T20:49:53.185Z,45.66
2022-08-17T20:55:40.376Z,45.80
2022-08-17T21:01:39.839Z,45.79
2022-08-17T21:07:43.733Z,45.87
2022-08-17T21:13:15.548Z,45.95
2022-08-17T21:19:07.410Z,45.91
2022-08-17T21:24:47.780Z,46.22
2022-08-17T21:30:30.483Z,46.30
2022-08-17T21:36:12.537Z,46.32
2022-08-17T21:41:53.007Z,46.47
2022-08-17T21:47:29.100Z,46.15
2022-08-17T21:53:02.569Z,46.25
2022-08-17T21:58:40.302Z,46.51
2022-08-17T22:04:11.734Z,46.61
2022-08-17T22:09:48.549Z,46.51
2022-08-17T22:15:20.877Z,46.46
2022-08-17T22:20:53.253Z,46.31
2022-08-17T22:26:28.334Z,46.69
2022-08-17T22:31:59.431Z,46.72
2022-08-17T22:37:30.455Z,46.57
2022-08-17T22:43:03.652Z,46.46
2022-08-17T22:48:35.681Z,46.60
2022-08-17T22:54:35.475Z,46.58
2022-08-17T23:00:28.175Z,46.52
2022-08-17T23:06:08.310Z,46.57
2022-08-17T23:11:48.810Z,46.82
2022-08-17T23:17:21.282Z,46.68
2022-08-17T23:22:53.143Z,46.46
2022-08-17T23:28:24.571Z,46.74
2022-08-17T23:33:56.241Z,46.58
2022-08-17T23:39:28.409Z,46.13
2022-08-17T23:44:59.541Z,46.59
2022-08-17T23:50:31.103Z,46.02
2022-08-17T23:56:09.994Z,46.23
